createdAt,value
2019-05-23T00:03:18.153Z,85.44
2019-05-23T00:08:23.550Z,86.33
2019-05-23T00:13:28.275Z,86.96
2019-05-23T00:18:32.808Z,85.80
2019-05-23T00:23:37.432Z,85.77
2019-05-23T00:28:41.711Z,86.26
2019-05-23T00:33:46.315Z,87.05
2019-05-23T00:38:50.820Z,87.03
2019-05-23T00:43:55.028Z,87.03
2019-05-23T00:48:59.668Z,87.87
2019-05-23T00:54:04.011Z,87.54
2019-05-23T00:59:08.104Z,88.29
2019-05-23T01:04:12.243Z,89.03
2019-05-23T01:09:18.795Z,89.58
2019-05-23T01:14:22.818Z,89.75
2019-05-23T01:19:27.371Z,90.26
2019-05-23T01:24:32.173Z,90.84
2019-05-23T01:29:38.653Z,90.97
2019-05-23T01:34:42.749Z,91.00
2019-05-23T01:39:46.894Z,91.22
2019-05-23T01:44:51.031Z,92.13
2019-05-23T01:49:55.467Z,93.11
2019-05-23T01:55:00.108Z,93.11
2019-05-23T02:00:10.714Z,93.05
2019-05-23T02:05:13.077Z,93.75
2019-05-23T02:10:17.766Z,93.75
2019-05-23T02:15:21.895Z,93.84
2019-05-23T02:20:26.593Z,93.11
2019-05-23T02:25:30.587Z,93.88
2019-05-23T02:30:36.340Z,94.71
2019-05-23T02:35:40.791Z,95.55
2019-05-23T02:40:44.969Z,95.98
2019-05-23T02:45:50.589Z,98.52
2019-05-23T02:50:59.073Z,100.00
2019-05-23T02:56:06.392Z,100.00
2019-05-23T03:01:31.686Z,100.00
2019-05-23T03:06:35.681Z,100.00
2019-05-23T03:11:42.354Z,100.00
2019-05-23T03:16:48.526Z,100.00
2019-05-23T03:21:54.980Z,100.00
2019-05-23T03:27:02.711Z,100.00
2019-05-23T03:32:06.743Z,100.00
2019-05-23T03:37:10.799Z,100.00
2019-05-23T03:42:15.053Z,100.00
2019-05-23T03:47:20.176Z,100.00
2019-05-23T03:52:24.513Z,100.00
2019-05-23T03:57:28.545Z,100.00
2019-05-23T04:02:33.230Z,100.00
2019-05-23T04:07:37.961Z,100.00
2019-05-23T04:12:42.493Z,100.00
2019-05-23T04:17:46.776Z,100.00
2019-05-23T04:22:50.873Z,100.00
2019-05-23T04:27:54.935Z,89.05
2019-05-23T04:32:59.565Z,89.05
2019-05-23T04:38:03.611Z,63.42
2019-05-23T04:43:08.017Z,52.83
2019-05-23T04:48:12.562Z,48.24
2019-05-23T04:53:16.867Z,43.03
2019-05-23T04:58:20.955Z,42.54
2019-05-23T05:03:25.708Z,39.66
2019-05-23T05:08:29.861Z,39.74
2019-05-23T05:13:34.157Z,37.07
2019-05-23T05:18:38.413Z,35.30
2019-05-23T05:23:43.343Z,31.93
2019-05-23T05:28:47.576Z,31.28
2019-05-23T05:33:51.910Z,32.52
2019-05-23T05:38:55.987Z,30.81
2019-05-23T05:44:00.418Z,30.23
2019-05-23T05:49:04.661Z,26.92
2019-05-23T05:54:09.261Z,27.31
2019-05-23T05:59:16.043Z,29.77
2019-05-23T06:04:20.275Z,28.06
2019-05-23T06:09:24.436Z,35.27
2019-05-23T06:14:28.724Z,33.59
2019-05-23T06:19:32.874Z,36.62
2019-05-23T06:24:46.812Z,31.03
2019-05-23T06:29:42.793Z,33.01
2019-05-23T06:34:48.491Z,33.35
2019-05-23T06:39:54.518Z,40.30
2019-05-23T06:44:58.629Z,42.71
2019-05-23T06:50:04.207Z,37.46
2019-05-23T06:55:08.997Z,41.38
2019-05-23T07:00:14.846Z,42.23
2019-05-23T07:05:22.122Z,44.51
2019-05-23T07:10:27.080Z,44.69
2019-05-23T07:15:31.116Z,37.76
2019-05-23T07:20:35.217Z,39.32
2019-05-23T07:25:39.323Z,40.61
2019-05-23T07:30:43.977Z,40.27
2019-05-23T07:35:48.077Z,34.78
2019-05-23T07:40:52.431Z,36.53
2019-05-23T07:45:56.605Z,33.53
2019-05-23T07:51:01.093Z,33.28
2019-05-23T07:56:06.615Z,31.05
2019-05-23T08:01:10.757Z,29.94
2019-05-23T08:06:14.952Z,34.92
2019-05-23T08:11:19.035Z,32.33
2019-05-23T08:16:23.046Z,32.08
2019-05-23T08:21:27.508Z,29.69
2019-05-23T08:26:31.783Z,29.83
2019-05-23T08:31:35.858Z,32.88
2019-05-23T08:36:39.943Z,31.32
2019-05-23T08:41:44.260Z,29.46
2019-05-23T08:46:48.586Z,31.60
2019-05-23T08:51:52.654Z,34.73
2019-05-23T08:56:56.990Z,33.36
2019-05-23T09:02:01.514Z,32.08
2019-05-23T09:07:05.760Z,32.02
2019-05-23T09:12:09.760Z,29.48
2019-05-23T09:17:13.931Z,30.58
2019-05-23T09:22:18.081Z,29.30
2019-05-23T09:27:22.272Z,31.84
2019-05-23T09:32:26.610Z,31.67
2019-05-23T09:37:30.944Z,31.44
2019-05-23T09:42:34.986Z,30.15
2019-05-23T09:47:39.073Z,28.92
2019-05-23T09:52:43.066Z,30.75
2019-05-23T09:57:47.189Z,31.52
2019-05-23T10:02:51.351Z,27.23
2019-05-23T10:07:55.454Z,30.61
2019-05-23T10:12:59.617Z,28.73
2019-05-23T10:18:03.777Z,29.79
2019-05-23T10:23:07.900Z,30.92
2019-05-23T10:28:12.019Z,32.81
2019-05-23T10:33:16.454Z,32.10
2019-05-23T10:38:20.451Z,32.08
2019-05-23T10:43:24.853Z,36.02
2019-05-23T10:48:29.588Z,35.06
2019-05-23T10:53:33.864Z,33.18
2019-05-23T10:58:37.928Z,31.83
2019-05-23T11:03:42.143Z,32.66
2019-05-23T11:08:46.344Z,34.95
2019-05-23T11:13:51.643Z,34.46
2019-05-23T11:18:56.175Z,32.23
2019-05-23T11:24:00.289Z,34.00
2019-05-23T11:29:06.314Z,35.90
2019-05-23T11:34:10.609Z,33.82
2019-05-23T11:39:14.760Z,36.21
2019-05-23T11:44:18.792Z,36.47
2019-05-23T11:49:24.810Z,36.42
2019-05-23T11:54:32.245Z,36.17
2019-05-23T11:59:37.902Z,36.65
2019-05-23T12:04:42.109Z,36.58
2019-05-23T12:09:46.950Z,36.46
2019-05-23T12:14:53.462Z,37.99
2019-05-23T12:19:57.550Z,37.30
2019-05-23T12:25:20.058Z,36.15
2019-05-23T12:30:10.872Z,37.53
2019-05-23T12:35:15.494Z,37.69
2019-05-23T12:40:19.586Z,36.72
2019-05-23T12:45:23.715Z,37.09
2019-05-23T12:50:27.782Z,35.67
2019-05-23T12:55:32.203Z,36.77
2019-05-23T13:00:36.805Z,37.28
2019-05-23T13:05:41.289Z,39.14
2019-05-23T13:10:45.307Z,37.49
2019-05-23T13:15:49.700Z,35.35
2019-05-23T13:20:53.773Z,36.82
2019-05-23T13:25:58.488Z,36.46
2019-05-23T13:31:02.743Z,34.78
2019-05-23T13:36:06.914Z,35.66
2019-05-23T13:41:11.256Z,36.99
2019-05-23T13:46:15.683Z,36.53
2019-05-23T13:51:19.751Z,37.72
2019-05-23T13:56:24.427Z,37.27
2019-05-23T14:01:28.860Z,34.81
2019-05-23T14:06:32.970Z,35.10
2019-05-23T14:11:37.179Z,35.61
2019-05-23T14:16:41.726Z,34.98
2019-05-23T14:21:45.822Z,35.30
2019-05-23T14:26:50.142Z,35.64
2019-05-23T14:31:54.220Z,35.11
2019-05-23T14:36:58.277Z,34.20
2019-05-23T14:42:02.385Z,34.37
2019-05-23T14:47:07.223Z,35.11
2019-05-23T14:52:12.080Z,35.05
2019-05-23T14:57:16.687Z,34.55
2019-05-23T15:02:21.748Z,34.97
2019-05-23T15:07:26.127Z,34.88
2019-05-23T15:12:30.199Z,33.24
2019-05-23T15:17:34.285Z,34.66
2019-05-23T15:22:38.437Z,34.28
2019-05-23T15:27:42.580Z,32.19
2019-05-23T15:32:46.628Z,32.56
2019-05-23T15:37:50.774Z,33.05
2019-05-23T15:42:54.846Z,33.26
2019-05-23T15:47:59.198Z,33.68
2019-05-23T15:53:03.449Z,33.68
2019-05-23T15:58:07.615Z,32.15
2019-05-23T16:03:13.851Z,32.22
2019-05-23T16:08:17.677Z,32.25
2019-05-23T16:13:21.654Z,32.54
2019-05-23T16:18:25.768Z,32.24
2019-05-23T16:23:29.989Z,33.16
2019-05-23T16:28:34.078Z,33.36
2019-05-23T16:33:38.067Z,33.11
2019-05-23T16:38:42.396Z,32.41
2019-05-23T16:43:46.433Z,32.28
2019-05-23T16:48:50.995Z,32.20
2019-05-23T16:53:55.376Z,32.96
2019-05-23T16:59:03.174Z,33.84
2019-05-23T17:04:05.709Z,33.10
2019-05-23T17:09:10.394Z,34.22
2019-05-23T17:14:14.638Z,33.54
2019-05-23T17:19:18.616Z,34.40
2019-05-23T17:24:22.734Z,35.17
2019-05-23T17:29:27.227Z,35.98
2019-05-23T17:34:31.829Z,37.14
2019-05-23T17:39:35.953Z,36.81
2019-05-23T17:44:40.025Z,38.85
2019-05-23T17:49:44.703Z,39.34
2019-05-23T17:54:49.437Z,40.64
2019-05-23T17:59:53.685Z,41.41
2019-05-23T18:04:59.641Z,43.22
2019-05-23T18:10:04.122Z,42.22
2019-05-23T18:15:09.394Z,42.82
2019-05-23T18:20:14.767Z,45.17
2019-05-23T18:25:20.164Z,44.72
2019-05-23T18:30:26.449Z,47.20
2019-05-23T18:35:31.424Z,46.63
2019-05-23T18:40:35.612Z,50.02
2019-05-23T18:45:39.972Z,50.14
2019-05-23T18:50:44.660Z,51.34
2019-05-23T18:55:48.743Z,50.91
2019-05-23T19:01:02.409Z,54.31
2019-05-23T19:06:06.500Z,55.03
2019-05-23T19:11:20.925Z,56.52
2019-05-23T19:16:19.656Z,58.02
2019-05-23T19:21:25.485Z,58.85
2019-05-23T19:26:30.598Z,59.82
2019-05-23T19:31:36.960Z,61.25
2019-05-23T19:36:43.071Z,62.21
2019-05-23T19:41:48.268Z,63.06
2019-05-23T19:46:52.881Z,65.37
2019-05-23T19:51:57.155Z,67.47
2019-05-23T19:57:01.198Z,66.72
2019-05-23T20:02:05.931Z,68.20
2019-05-23T20:07:10.358Z,70.29
2019-05-23T20:12:15.277Z,70.65
2019-05-23T20:17:19.684Z,72.55
2019-05-23T20:22:23.715Z,72.99
2019-05-23T20:27:28.241Z,74.08
2019-05-23T20:32:32.935Z,75.54
2019-05-23T20:37:37.122Z,76.10
2019-05-23T20:42:41.177Z,76.84
2019-05-23T20:47:45.695Z,77.78
2019-05-23T20:52:51.434Z,78.29
2019-05-23T20:57:55.502Z,79.27
2019-05-23T21:02:59.639Z,80.15
2019-05-23T21:08:03.710Z,80.62
2019-05-23T21:13:07.822Z,82.21
2019-05-23T21:18:12.030Z,82.58
2019-05-23T21:23:16.097Z,83.12
2019-05-23T21:28:20.198Z,83.59
2019-05-23T21:33:24.456Z,85.14
2019-05-23T21:38:28.778Z,87.62
2019-05-23T21:43:32.937Z,88.24
2019-05-23T21:48:37.195Z,89.25
2019-05-23T21:53:41.338Z,89.52
2019-05-23T21:58:45.499Z,90.46
2019-05-23T22:03:49.839Z,90.77
2019-05-23T22:08:53.892Z,91.74
2019-05-23T22:13:57.972Z,92.83
2019-05-23T22:19:02.507Z,93.15
2019-05-23T22:24:06.523Z,94.39
2019-05-23T22:29:10.656Z,95.55
2019-05-23T22:34:14.890Z,95.76
2019-05-23T22:39:18.915Z,97.38
2019-05-23T22:44:23.095Z,98.51
2019-05-23T22:49:27.175Z,98.50
2019-05-23T22:54:31.555Z,99.39
2019-05-23T22:59:35.691Z,100.00
2019-05-23T23:04:39.714Z,100.00
2019-05-23T23:09:44.194Z,100.00
2019-05-23T23:14:48.359Z,100.00
2019-05-23T23:19:52.398Z,100.00
2019-05-23T23:24:56.596Z,100.00
2019-05-23T23:30:00.676Z,100.00
2019-05-23T23:35:04.823Z,100.00
2019-05-23T23:40:09.112Z,100.00
2019-05-23T23:45:13.491Z,100.00
2019-05-23T23:50:18.874Z,100.00
2019-05-23T23:55:22.947Z,100.00
